Time;durP1;ratioP1;P1;durP2;ratioP2;P2;SDS_P1;SDS_P2;PMS_P1;PMS_P2;Temp;Humidity;BMP_temperature;BMP_pressure;BME280_temperature;BME280_humidity;BME280_pressure;Samples;Min_cycle;Max_cycle;Signal;HPM_P1;HPM_P2
2021/12/15 00:02:05;;;;;;;59.65;23.20;;;9.60;99.90;;;;;;5022230;28;20401;-71
2021/12/15 00:04:31;;;;;;;59.78;20.60;;;9.60;99.90;;;;;;5019849;28;20048;-71
2021/12/15 00:06:57;;;;;;;58.45;19.75;;;9.60;99.90;;;;;;5019571;28;20507;-72
2021/12/15 00:09:22;;;;;;;37.88;17.52;;;9.60;99.90;;;;;;5025836;28;20123;-72
2021/12/15 00:11:48;;;;;;;43.88;18.77;;;9.60;99.90;;;;;;5026980;28;20084;-72
2021/12/15 00:14:17;;;;;;;50.92;21.05;;;9.60;99.90;;;;;;5030007;28;20045;-71
2021/12/15 00:16:44;;;;;;;49.22;19.95;;;9.60;99.90;;;;;;5032050;28;20043;-71
2021/12/15 00:19:09;;;;;;;49.55;19.08;;;9.60;99.90;;;;;;5029216;28;20053;-71
2021/12/15 00:21:36;;;;;;;37.55;17.13;;;9.70;99.90;;;;;;5026847;28;20042;-71
2021/12/15 00:24:03;;;;;;;47.65;18.67;;;9.70;99.90;;;;;;5033254;28;20041;-70
2021/12/15 00:26:29;;;;;;;35.10;14.65;;;9.70;99.90;;;;;;5028861;28;20091;-71
2021/12/15 00:28:55;;;;;;;55.92;19.45;;;9.70;99.90;;;;;;5023539;28;20045;-72
2021/12/15 00:31:21;;;;;;;41.90;18.33;;;9.70;99.90;;;;;;5026754;28;20099;-71
2021/12/15 00:33:47;;;;;;;42.13;15.95;;;9.70;99.90;;;;;;5030757;28;20072;-71
2021/12/15 00:36:14;;;;;;;39.10;16.83;;;9.70;99.90;;;;;;5030438;28;20480;-71
2021/12/15 00:38:40;;;;;;;52.60;20.13;;;9.70;99.90;;;;;;5027398;28;20112;-71
2021/12/15 00:41:07;;;;;;;43.25;17.50;;;9.70;99.90;;;;;;5027061;28;20050;-71
2021/12/15 00:43:33;;;;;;;52.17;19.13;;;9.70;99.90;;;;;;5027128;28;20273;-70
2021/12/15 00:45:59;;;;;;;42.90;16.85;;;9.70;99.90;;;;;;5026883;28;20049;-72
2021/12/15 00:48:25;;;;;;;43.33;17.92;;;9.70;99.90;;;;;;5026030;28;20050;-71
2021/12/15 00:50:51;;;;;;;46.80;18.52;;;9.70;99.90;;;;;;5030689;28;20388;-72
2021/12/15 00:53:17;;;;;;;47.05;19.77;;;9.70;99.90;;;;;;5022128;28;20058;-72
2021/12/15 00:55:43;;;;;;;50.65;19.05;;;9.70;99.90;;;;;;5029407;28;20503;-71
2021/12/15 00:58:10;;;;;;;57.65;20.48;;;9.70;99.90;;;;;;5022213;28;20588;-70
2021/12/15 01:00:40;;;;;;;61.20;18.60;;;9.70;99.90;;;;;;5027470;28;20052;-72
2021/12/15 01:03:07;;;;;;;43.88;15.85;;;9.70;99.90;;;;;;5026416;28;20552;-71
2021/12/15 01:05:39;;;;;;;45.40;18.67;;;9.70;99.90;;;;;;5023874;28;20100;-72
2021/12/15 01:08:09;;;;;;;47.80;19.52;;;9.70;99.90;;;;;;5030700;28;20581;-71
2021/12/15 01:22:09;;;;;;;54.28;22.48;;;9.70;99.90;;;;;;5050520;28;20041;-71
2021/12/15 01:24:34;;;;;;;53.83;21.95;;;9.70;99.90;;;;;;5037805;28;20048;-72
2021/12/15 01:27:00;;;;;;;67.80;24.33;;;9.70;99.90;;;;;;5027769;28;20115;-72
2021/12/15 01:29:28;;;;;;;64.63;24.48;;;9.70;99.90;;;;;;5030303;28;20083;-72
2021/12/15 01:31:53;;;;;;;51.10;21.33;;;9.70;99.90;;;;;;5029215;28;20045;-71
2021/12/15 01:34:19;;;;;;;54.88;22.90;;;9.70;99.90;;;;;;5025269;28;20447;-72
2021/12/15 01:36:45;;;;;;;65.28;23.75;;;9.70;99.90;;;;;;5029582;28;20041;-72
2021/12/15 01:39:10;;;;;;;51.35;23.55;;;9.70;99.90;;;;;;5029617;28;20133;-71
2021/12/15 01:41:36;;;;;;;56.80;24.17;;;9.70;99.90;;;;;;5029355;28;20104;-72
2021/12/15 01:47:04;;;;;;;59.88;24.65;;;9.70;99.90;;;;;;5026120;28;20052;-71
2021/12/15 01:49:30;;;;;;;54.17;22.38;;;9.70;99.90;;;;;;5022396;28;20440;-71
2021/12/15 01:51:59;;;;;;;51.45;21.25;;;9.70;99.90;;;;;;5029729;28;20155;-72
2021/12/15 01:54:27;;;;;;;70.80;27.17;;;9.70;99.90;;;;;;5021489;28;20092;-72
2021/12/15 01:56:53;;;;;;;70.43;27.02;;;9.60;99.90;;;;;;5029274;28;20036;-72
2021/12/15 01:59:22;;;;;;;64.65;26.85;;;9.70;99.90;;;;;;5024264;28;20056;-71
2021/12/15 02:01:48;;;;;;;65.63;27.73;;;9.70;99.90;;;;;;5025134;28;20048;-71
2021/12/15 02:04:16;;;;;;;61.00;26.13;;;9.70;99.90;;;;;;5019298;28;20388;-71
2021/12/15 02:06:44;;;;;;;56.85;24.05;;;9.70;99.90;;;;;;5024264;28;20125;-71
2021/12/15 02:09:13;;;;;;;59.95;26.50;;;9.70;99.90;;;;;;5028290;28;20437;-71
2021/12/15 02:11:39;;;;;;;68.10;25.63;;;9.70;99.90;;;;;;5028124;28;20037;-71
2021/12/15 02:14:05;;;;;;;61.40;26.40;;;9.60;99.90;;;;;;5025944;28;20060;-72
2021/12/15 02:16:30;;;;;;;54.47;26.10;;;9.70;99.90;;;;;;5025420;28;20045;-72
2021/12/15 02:18:56;;;;;;;55.83;23.60;;;9.60;99.90;;;;;;5026088;28;20069;-71
2021/12/15 02:21:24;;;;;;;49.45;22.00;;;9.70;99.90;;;;;;5027660;28;20127;-71
2021/12/15 02:23:54;;;;;;;63.42;24.58;;;9.70;99.90;;;;;;5025080;28;20052;-71
2021/12/15 02:26:24;;;;;;;61.47;26.17;;;9.60;99.90;;;;;;5021728;28;20037;-71
2021/12/15 02:28:56;;;;;;;64.38;27.55;;;9.70;99.90;;;;;;5023067;28;20040;-71
2021/12/15 02:31:40;;;;;;;67.30;26.85;;;9.60;99.90;;;;;;5022881;28;20049;-72
2021/12/15 02:34:33;;;;;;;67.13;26.85;;;9.60;99.90;;;;;;5018289;28;20080;-71
2021/12/15 02:39:53;;;;;;;64.70;25.70;;;9.60;99.90;;;;;;5020973;28;20038;-72
2021/12/15 02:42:40;;;;;;;68.45;27.40;;;9.60;99.90;;;;;;5018615;28;20050;-71
2021/12/15 02:45:10;;;;;;;63.00;26.25;;;9.60;99.90;;;;;;5022163;28;20045;-72
2021/12/15 02:47:37;;;;;;;57.70;26.55;;;9.60;99.90;;;;;;5020600;28;20068;-72
2021/12/15 02:50:06;;;;;;;61.78;25.15;;;9.60;99.90;;;;;;5027541;28;20053;-71
2021/12/15 02:52:32;;;;;;;68.55;27.15;;;9.60;99.90;;;;;;5028396;28;20053;-71
2021/12/15 02:54:57;;;;;;;68.47;27.58;;;9.50;99.90;;;;;;5024972;28;20576;-71
2021/12/15 02:57:23;;;;;;;61.47;22.88;;;9.50;99.90;;;;;;5021108;28;20439;-71
2021/12/15 03:05:03;;;;;;;68.93;26.67;;;9.50;99.90;;;;;;5017972;28;20383;-72
2021/12/15 03:15:36;;;;;;;64.70;28.15;;;9.50;99.90;;;;;;5021882;28;20136;-71
2021/12/15 03:18:09;;;;;;;60.78;27.17;;;9.40;99.90;;;;;;5027195;28;20122;-71
2021/12/15 03:20:45;;;;;;;56.92;25.05;;;9.40;99.90;;;;;;5025249;28;20515;-70
2021/12/15 03:23:16;;;;;;;62.35;23.73;;;9.40;99.90;;;;;;5017795;28;20045;-70
2021/12/15 03:25:42;;;;;;;65.75;26.40;;;9.40;99.90;;;;;;5025280;28;20529;-71
2021/12/15 03:33:54;;;;;;;56.13;24.00;;;9.40;99.90;;;;;;5024682;28;20549;-71
2021/12/15 03:36:52;;;;;;;59.47;24.38;;;9.40;99.90;;;;;;5021865;28;20042;-71
2021/12/15 03:39:19;;;;;;;64.90;28.17;;;9.40;99.90;;;;;;5025305;28;20041;-71
2021/12/15 03:41:45;;;;;;;62.67;26.67;;;9.40;99.90;;;;;;5023728;28;20111;-71
2021/12/15 03:44:11;;;;;;;64.07;27.77;;;9.40;99.90;;;;;;5025559;28;20046;-70
2021/12/15 03:46:37;;;;;;;58.90;25.52;;;9.40;99.90;;;;;;5024183;28;20033;-71
2021/12/15 03:49:04;;;;;;;68.05;28.05;;;9.40;99.90;;;;;;5024732;28;20042;-70
2021/12/15 03:51:29;;;;;;;69.15;27.13;;;9.40;99.90;;;;;;5029760;28;20148;-71
2021/12/15 03:53:55;;;;;;;69.95;27.55;;;9.40;99.90;;;;;;5016059;28;20038;-71
2021/12/15 03:56:21;;;;;;;54.72;24.42;;;9.40;99.90;;;;;;5029743;28;20378;-71
2021/12/15 03:58:47;;;;;;;56.45;25.70;;;9.40;99.90;;;;;;5025573;28;20430;-71
2021/12/15 04:01:19;;;;;;;60.40;24.88;;;9.40;99.90;;;;;;5025356;28;20041;-71
2021/12/15 04:03:48;;;;;;;61.08;24.65;;;9.40;99.90;;;;;;5028258;28;20384;-71
2021/12/15 04:06:18;;;;;;;59.38;25.10;;;9.50;99.90;;;;;;5028878;28;20045;-70
2021/12/15 04:08:44;;;;;;;52.08;22.50;;;9.50;99.90;;;;;;5030413;28;20040;-71
2021/12/15 04:11:14;;;;;;;61.47;24.98;;;9.50;99.90;;;;;;5030117;28;20042;-71
2021/12/15 04:13:41;;;;;;;53.33;24.13;;;9.50;99.90;;;;;;5029757;28;20064;-71
2021/12/15 04:16:15;;;;;;;51.72;22.17;;;9.50;99.90;;;;;;5027521;28;20536;-70
2021/12/15 04:18:41;;;;;;;54.58;23.88;;;9.50;99.90;;;;;;5024492;28;20065;-70
2021/12/15 04:21:06;;;;;;;47.28;24.38;;;9.50;99.90;;;;;;5027572;28;20086;-71
2021/12/15 04:23:33;;;;;;;54.28;24.20;;;9.50;99.90;;;;;;5026291;28;20036;-71
2021/12/15 04:25:59;;;;;;;46.65;19.70;;;9.50;99.90;;;;;;5028285;28;20126;-71
2021/12/15 04:28:35;;;;;;;54.42;23.33;;;9.50;99.90;;;;;;5028822;28;20094;-71
2021/12/15 04:31:14;;;;;;;50.67;22.95;;;9.50;99.90;;;;;;5028760;28;20044;-71
2021/12/15 04:33:55;;;;;;;57.75;23.33;;;9.50;99.90;;;;;;5028158;28;20053;-71
2021/12/15 04:36:26;;;;;;;50.78;20.40;;;9.50;99.90;;;;;;5034443;28;20466;-70
2021/12/15 04:38:52;;;;;;;42.72;19.30;;;9.40;99.90;;;;;;5029927;28;20045;-71
2021/12/15 04:41:20;;;;;;;53.08;24.02;;;9.40;99.90;;;;;;5024392;28;20042;-70
2021/12/15 04:43:56;;;;;;;57.63;24.15;;;9.40;99.90;;;;;;5027676;28;20080;-71
2021/12/15 04:46:23;;;;;;;56.00;23.48;;;9.40;99.90;;;;;;5030586;28;20047;-71
2021/12/15 04:48:49;;;;;;;47.35;21.58;;;9.40;99.90;;;;;;5028623;28;20322;-70
2021/12/15 04:51:14;;;;;;;62.55;23.45;;;9.40;99.90;;;;;;5030727;28;20259;-71
2021/12/15 04:53:41;;;;;;;56.15;23.02;;;9.40;99.90;;;;;;5024167;28;20045;-71
2021/12/15 04:56:07;;;;;;;56.03;22.15;;;9.40;99.90;;;;;;5029433;28;20581;-70
2021/12/15 04:58:34;;;;;;;56.00;24.20;;;9.40;99.90;;;;;;5026845;28;20637;-69
2021/12/15 05:01:03;;;;;;;61.83;23.98;;;9.40;99.90;;;;;;5025207;28;20674;-70
2021/12/15 05:03:29;;;;;;;63.67;24.80;;;9.40;99.90;;;;;;5023091;28;20060;-69
2021/12/15 05:05:55;;;;;;;51.65;21.95;;;9.40;99.90;;;;;;5029054;28;20131;-70
2021/12/15 05:08:21;;;;;;;54.00;22.00;;;9.40;99.90;;;;;;5027796;28;21664;-70
2021/12/15 05:10:47;;;;;;;53.00;21.25;;;9.40;99.90;;;;;;5031580;28;20141;-69
2021/12/15 05:13:13;;;;;;;60.95;24.88;;;9.40;99.90;;;;;;5029347;28;20511;-69
2021/12/15 05:15:40;;;;;;;51.88;21.70;;;9.40;99.90;;;;;;5030802;28;20143;-69
2021/12/15 05:18:07;;;;;;;56.63;21.95;;;9.30;99.90;;;;;;5027336;28;20056;-69
2021/12/15 05:20:35;;;;;;;50.40;21.80;;;9.40;99.90;;;;;;5031525;28;20516;-70
2021/12/15 05:23:03;;;;;;;52.33;21.05;;;9.40;99.90;;;;;;5023812;28;20127;-70
2021/12/15 05:25:29;;;;;;;54.20;20.38;;;9.40;99.90;;;;;;5027997;28;20051;-70
2021/12/15 05:27:54;;;;;;;45.13;19.77;;;9.40;99.90;;;;;;5029049;28;20551;-70
2021/12/15 05:30:20;;;;;;;50.92;21.52;;;9.40;99.90;;;;;;5026177;28;20049;-70
2021/12/15 05:32:47;;;;;;;55.47;22.17;;;9.40;99.90;;;;;;5031986;28;20079;-70
2021/12/15 05:35:20;;;;;;;48.22;20.17;;;9.50;99.90;;;;;;5025905;28;20223;-70
2021/12/15 05:37:46;;;;;;;;;;;9.50;99.90;;;;;;5025133;28;20053;-71
2021/12/15 05:40:11;;;;;;;59.55;21.98;;;9.50;99.90;;;;;;5027379;28;19920;-71
2021/12/15 05:42:37;;;;;;;51.92;22.25;;;9.50;99.90;;;;;;5013776;28;20053;-71
2021/12/15 05:45:04;;;;;;;60.17;24.30;;;9.50;99.90;;;;;;5026827;28;20041;-70
2021/12/15 05:47:30;;;;;;;57.88;25.65;;;9.50;99.90;;;;;;5025993;28;20069;-71
2021/12/15 05:49:55;;;;;;;70.07;27.55;;;9.50;99.90;;;;;;5019940;28;20077;-70
2021/12/15 05:52:26;;;;;;;56.22;27.52;;;9.50;99.90;;;;;;5016177;28;20069;-71
2021/12/15 05:54:52;;;;;;;62.97;26.48;;;9.40;99.90;;;;;;5023280;28;20096;-71
2021/12/15 05:57:17;;;;;;;56.35;25.33;;;9.40;99.90;;;;;;5025185;28;20452;-70
2021/12/15 05:59:43;;;;;;;69.63;25.42;;;9.40;99.90;;;;;;5029015;28;20045;-70
2021/12/15 06:02:09;;;;;;;53.95;23.48;;;9.40;99.90;;;;;;5011025;28;20073;-70
2021/12/15 06:04:40;;;;;;;52.25;23.50;;;9.40;99.90;;;;;;5019757;28;20048;-71
2021/12/15 06:07:09;;;;;;;52.67;21.52;;;9.40;99.90;;;;;;5010091;28;20041;-71
2021/12/15 06:09:35;;;;;;;54.80;21.42;;;9.50;99.90;;;;;;5019788;28;20050;-71
2021/12/15 06:12:01;;;;;;;38.10;18.33;;;9.50;99.90;;;;;;5024497;28;20056;-71
2021/12/15 06:14:28;;;;;;;49.15;21.25;;;9.50;99.90;;;;;;5026021;28;20061;-70
2021/12/15 06:17:09;;;;;;;46.15;19.23;;;9.50;99.90;;;;;;5025388;28;20069;-72
2021/12/15 06:19:38;;;;;;;43.00;18.65;;;9.60;99.90;;;;;;5022369;28;20571;-71
2021/12/15 06:22:06;;;;;;;53.67;19.52;;;9.60;99.90;;;;;;5021212;28;20042;-71
2021/12/15 06:24:36;;;;;;;50.80;18.90;;;9.60;99.90;;;;;;5030923;28;20790;-70
2021/12/15 06:27:09;;;;;;;41.70;17.38;;;9.60;99.90;;;;;;5022824;28;20154;-69
2021/12/15 06:29:36;;;;;;;;;;;9.60;99.90;;;;;;5024855;28;20060;-71
2021/12/15 06:32:03;;;;;;;37.13;16.75;;;9.60;99.90;;;;;;5020165;28;19975;-70
2021/12/15 06:34:29;;;;;;;42.35;16.15;;;9.60;99.90;;;;;;5024868;28;20042;-70
2021/12/15 06:36:56;;;;;;;42.90;17.73;;;9.60;99.90;;;;;;5024341;28;20053;-70
2021/12/15 06:39:22;;;;;;;35.97;16.27;;;9.60;99.90;;;;;;5025247;28;20095;-70
2021/12/15 06:41:48;;;;;;;45.20;17.23;;;9.60;99.90;;;;;;5022212;28;20121;-70
2021/12/15 06:44:16;;;;;;;35.67;14.60;;;9.60;99.90;;;;;;5021576;28;20530;-70
2021/12/15 07:00:06;;;;;;;37.30;15.63;;;9.60;99.90;;;;;;5025329;28;20059;-69
2021/12/15 07:02:32;;;;;;;45.90;17.60;;;9.70;99.90;;;;;;5022360;28;20052;-70
2021/12/15 07:04:57;;;;;;;34.35;14.90;;;9.70;99.90;;;;;;5021562;28;20049;-70
2021/12/15 07:07:23;;;;;;;31.17;13.43;;;9.60;99.90;;;;;;5026917;28;20045;-70
2021/12/15 07:09:49;;;;;;;33.15;14.90;;;9.60;99.90;;;;;;5023837;28;20052;-70
2021/12/15 07:12:15;;;;;;;31.45;14.85;;;9.60;99.90;;;;;;5028902;28;20049;-70
2021/12/15 07:14:41;;;;;;;34.80;14.43;;;9.60;99.90;;;;;;5028192;28;20042;-69
2021/12/15 07:17:14;;;;;;;31.38;12.23;;;9.60;99.90;;;;;;5033209;28;20045;-69
2021/12/15 07:20:06;;;;;;;26.10;10.73;;;9.60;99.90;;;;;;5026586;28;20044;-71
2021/12/15 07:22:43;;;;;;;24.45;10.73;;;9.60;99.90;;;;;;5024237;28;20044;-69
2021/12/15 07:25:12;;;;;;;31.48;14.00;;;9.60;99.90;;;;;;5029639;28;20451;-70
2021/12/15 07:27:38;;;;;;;35.15;11.65;;;9.60;99.90;;;;;;5023350;28;20059;-70
2021/12/15 07:30:05;;;;;;;24.00;11.60;;;9.60;99.90;;;;;;5029253;28;20088;-70
2021/12/15 07:32:31;;;;;;;27.23;12.68;;;9.60;99.90;;;;;;5027317;28;20033;-69
2021/12/15 07:34:57;;;;;;;21.33;10.35;;;9.60;99.90;;;;;;5026802;28;20041;-70
2021/12/15 07:37:22;;;;;;;24.77;9.98;;;9.60;99.90;;;;;;5029738;28;20385;-69
2021/12/15 07:39:57;;;;;;;25.48;10.07;;;9.50;99.90;;;;;;5031870;28;20353;-70
2021/12/15 07:42:32;;;;;;;21.52;10.38;;;9.50;99.90;;;;;;5033018;28;20095;-70
2021/12/15 07:44:58;;;;;;;21.23;9.43;;;9.50;99.90;;;;;;5041955;28;20056;-70
2021/12/15 07:47:24;;;;;;;17.48;8.25;;;9.60;99.90;;;;;;5031895;28;20042;-69
2021/12/15 07:49:49;;;;;;;18.58;7.07;;;9.50;99.90;;;;;;5034763;28;20106;-70
2021/12/15 07:52:15;;;;;;;21.30;8.90;;;9.50;99.90;;;;;;5027885;28;20079;-70
2021/12/15 07:54:41;;;;;;;23.67;9.77;;;9.50;99.90;;;;;;5030613;28;20045;-70
2021/12/15 07:57:10;;;;;;;21.27;7.13;;;9.50;99.90;;;;;;5029974;28;20165;-69
2021/12/15 07:59:36;;;;;;;25.40;10.25;;;9.50;99.90;;;;;;5028667;28;20426;-70
2021/12/15 08:02:03;;;;;;;20.55;7.32;;;9.50;99.90;;;;;;5025549;28;20038;-69
2021/12/15 08:04:29;;;;;;;22.08;7.70;;;9.50;99.90;;;;;;5026613;28;20060;-69
2021/12/15 08:06:55;;;;;;;26.67;7.75;;;9.50;99.90;;;;;;5029272;28;20049;-71
2021/12/15 08:09:22;;;;;;;23.13;7.93;;;9.50;99.90;;;;;;5029033;28;20373;-68
2021/12/15 08:11:49;;;;;;;17.83;7.97;;;9.50;99.90;;;;;;5030841;28;20034;-70
2021/12/15 08:14:15;;;;;;;28.48;8.68;;;9.50;99.90;;;;;;5033189;28;20079;-69
2021/12/15 08:16:41;;;;;;;33.47;10.48;;;9.50;99.90;;;;;;5029758;28;20392;-70
2021/12/15 08:19:08;;;;;;;26.90;9.85;;;9.50;99.90;;;;;;5027307;28;20416;-70
2021/12/15 08:21:34;;;;;;;19.58;9.35;;;9.50;99.90;;;;;;5034155;28;20045;-69
2021/12/15 08:24:00;;;;;;;28.90;12.02;;;9.50;99.90;;;;;;5031284;28;20140;-70
2021/12/15 08:26:26;;;;;;;37.63;14.50;;;9.50;99.90;;;;;;5026658;28;20149;-69
2021/12/15 08:28:52;;;;;;;36.30;15.25;;;9.50;99.90;;;;;;5030810;28;20511;-70
2021/12/15 08:31:18;;;;;;;33.30;14.75;;;9.40;99.90;;;;;;5030573;28;20059;-70
2021/12/15 08:33:44;;;;;;;35.08;14.68;;;9.40;99.90;;;;;;5024757;28;20095;-70
2021/12/15 08:36:13;;;;;;;30.48;16.23;;;9.40;99.90;;;;;;5025287;28;20088;-70
2021/12/15 08:38:41;;;;;;;42.08;17.67;;;9.40;99.90;;;;;;5030800;28;20040;-70
2021/12/15 08:41:13;;;;;;;40.85;17.63;;;9.40;99.90;;;;;;5032190;28;20048;-70
2021/12/15 08:43:40;;;;;;;37.05;14.82;;;9.40;99.90;;;;;;5028902;28;20045;-70
2021/12/15 08:46:14;;;;;;;35.25;15.40;;;9.40;99.90;;;;;;5027776;28;20060;-70
2021/12/15 08:48:42;;;;;;;36.97;17.38;;;9.40;99.90;;;;;;5028311;28;20064;-70
2021/12/15 08:51:12;;;;;;;33.28;14.93;;;9.40;99.90;;;;;;5026943;28;20038;-70
2021/12/15 08:53:39;;;;;;;35.67;15.15;;;9.40;99.90;;;;;;5029704;28;20049;-70
2021/12/15 08:56:05;;;;;;;36.05;15.15;;;9.40;99.90;;;;;;5027478;28;20052;-70
2021/12/15 08:58:31;;;;;;;29.70;14.10;;;9.40;99.90;;;;;;5029083;28;20401;-70
2021/12/15 09:00:58;;;;;;;33.83;15.32;;;9.40;99.90;;;;;;5021811;28;20041;-70
2021/12/15 09:03:25;;;;;;;35.85;15.45;;;9.50;99.90;;;;;;5026111;28;20503;-71
2021/12/15 09:05:53;;;;;;;32.30;14.48;;;9.50;99.90;;;;;;5020099;28;20053;-71
2021/12/15 09:08:21;;;;;;;33.60;14.35;;;9.50;99.90;;;;;;5024118;28;20049;-71
2021/12/15 09:10:47;;;;;;;22.88;12.07;;;9.50;99.90;;;;;;5031234;28;20037;-70
2021/12/15 09:13:13;;;;;;;32.95;12.57;;;9.50;99.90;;;;;;5029192;28;20041;-70
2021/12/15 09:15:41;;;;;;;23.42;12.27;;;9.50;99.90;;;;;;5031177;28;20068;-70
2021/12/15 09:18:09;;;;;;;26.88;12.68;;;9.60;99.90;;;;;;5032224;28;20052;-70
2021/12/15 09:20:36;;;;;;;21.33;11.02;;;9.60;99.90;;;;;;5026792;28;20124;-70
2021/12/15 09:23:03;;;;;;;28.48;11.45;;;9.60;99.90;;;;;;5019837;28;20504;-70
2021/12/15 09:25:29;;;;;;;23.38;11.02;;;9.60;99.90;;;;;;5025141;28;20133;-69
2021/12/15 09:27:58;;;;;;;23.25;9.50;;;9.60;99.90;;;;;;5024587;28;20045;-70
2021/12/15 09:30:26;;;;;;;19.70;9.57;;;9.60;99.90;;;;;;5027950;28;20106;-69
2021/12/15 09:32:52;;;;;;;22.50;11.13;;;9.60;99.90;;;;;;5022205;28;20671;-70
2021/12/15 09:35:19;;;;;;;23.48;9.95;;;9.60;99.90;;;;;;5024591;28;20038;-70
2021/12/15 09:37:46;;;;;;;24.52;11.00;;;9.70;99.90;;;;;;5029618;28;20056;-70
2021/12/15 09:40:13;;;;;;;23.42;10.38;;;9.70;99.90;;;;;;5020168;28;20046;-71
2021/12/15 09:42:40;;;;;;;24.88;11.75;;;9.70;99.90;;;;;;5022216;28;20045;-70
2021/12/15 09:48:00;;;;;;;20.63;11.00;;;9.70;99.90;;;;;;5026224;28;20590;-68
2021/12/15 10:07:15;;;;;;;19.92;8.77;;;9.80;99.90;;;;;;5027377;28;20469;-70
2021/12/15 10:17:26;;;;;;;23.92;9.68;;;9.80;99.90;;;;;;5032264;28;20056;-70
2021/12/15 10:17:47;;;;;;;26.00;9.13;;;9.90;99.90;;;;;;5027352;28;20037;-72
2021/12/15 10:20:20;;;;;;;20.77;8.75;;;9.90;99.90;;;;;;5029961;28;20060;-71
2021/12/15 10:22:50;;;;;;;16.58;8.77;;;9.90;99.90;;;;;;5029690;28;20049;-70
2021/12/15 10:25:22;;;;;;;16.40;7.47;;;10.00;99.90;;;;;;5027229;28;20115;-70
2021/12/15 10:27:55;;;;;;;19.80;8.80;;;10.00;99.90;;;;;;5022025;28;20100;-70
2021/12/15 10:30:22;;;;;;;;;;;10.00;99.90;;;;;;5025849;28;21654;-70
2021/12/15 10:32:52;;;;;;;21.38;7.50;;;10.00;99.90;;;;;;5026480;28;20273;-70
2021/12/15 10:35:26;;;;;;;15.20;7.05;;;10.10;99.90;;;;;;5025811;28;20492;-70
2021/12/15 10:38:16;;;;;;;17.75;6.50;;;10.10;99.90;;;;;;5029951;28;20041;-70
2021/12/15 10:41:10;;;;;;;14.32;6.88;;;10.10;99.90;;;;;;5027710;28;20047;-71
2021/12/15 10:43:35;;;;;;;;;;;10.10;99.90;;;;;;5015267;28;20048;-70
2021/12/15 10:46:28;;;;;;;12.20;5.68;;;10.10;99.90;;;;;;5023341;28;19986;-71
2021/12/15 10:48:58;;;;;;;9.95;4.70;;;10.20;99.90;;;;;;5030714;28;20056;-73
2021/12/15 10:51:40;;;;;;;15.95;5.07;;;10.20;99.90;;;;;;5021617;28;20046;-74
2021/12/15 10:54:18;;;;;;;13.90;5.22;;;10.20;99.90;;;;;;5023165;28;20107;-73
2021/12/15 10:56:58;;;;;;;18.67;5.40;;;10.20;99.90;;;;;;5024574;28;22277;-73
2021/12/15 10:59:31;;;;;;;11.50;4.70;;;10.20;99.90;;;;;;5025170;28;20069;-73
2021/12/15 11:02:05;;;;;;;13.27;4.95;;;10.30;99.90;;;;;;5027508;28;20065;-73
2021/12/15 11:04:45;;;;;;;11.95;4.47;;;10.30;99.90;;;;;;5026083;28;20037;-73
2021/12/15 11:07:31;;;;;;;9.95;3.85;;;10.30;99.90;;;;;;5023214;28;20453;-72
2021/12/15 11:10:20;;;;;;;14.07;4.25;;;10.30;99.90;;;;;;5028354;28;20045;-73
2021/12/15 11:12:53;;;;;;;9.65;2.85;;;10.30;99.90;;;;;;5025666;28;20508;-73
2021/12/15 11:15:27;;;;;;;12.55;2.97;;;10.30;99.90;;;;;;5032247;28;20092;-71
2021/12/15 11:18:01;;;;;;;8.63;3.38;;;10.30;99.90;;;;;;5027513;28;20052;-72
2021/12/15 11:21:01;;;;;;;9.95;3.33;;;10.30;99.90;;;;;;5026914;28;20037;-72
2021/12/15 11:23:29;;;;;;;10.35;3.25;;;10.30;99.90;;;;;;5025748;28;20304;-71
2021/12/15 11:26:02;;;;;;;7.88;2.83;;;10.30;99.90;;;;;;5029975;28;20072;-72
2021/12/15 11:28:32;;;;;;;12.45;3.05;;;10.30;99.90;;;;;;5024764;28;20113;-72
2021/12/15 11:31:18;;;;;;;10.50;3.10;;;10.40;99.90;;;;;;5023444;28;20053;-72
2021/12/15 11:33:56;;;;;;;8.45;2.75;;;10.30;99.90;;;;;;5019441;28;20138;-70
2021/12/15 11:36:35;;;;;;;11.95;2.70;;;10.40;99.90;;;;;;5023309;28;20104;-72
2021/12/15 11:39:07;;;;;;;7.05;2.58;;;10.40;99.90;;;;;;5026229;28;20045;-71
2021/12/15 11:41:37;;;;;;;7.65;2.22;;;10.40;99.90;;;;;;5023541;28;20042;-72
2021/12/15 11:44:06;;;;;;;10.93;2.35;;;10.30;99.90;;;;;;5022093;28;20049;-72
2021/12/15 11:46:33;;;;;;;8.80;2.50;;;10.30;99.90;;;;;;5046789;28;20049;-71
2021/12/15 11:49:06;;;;;;;11.27;1.80;;;10.30;99.90;;;;;;5026995;28;20041;-72
2021/12/15 11:51:39;;;;;;;8.15;2.10;;;10.30;99.90;;;;;;5030101;28;20116;-72
2021/12/15 11:54:25;;;;;;;6.57;2.03;;;10.30;99.90;;;;;;5026196;28;20492;-71
2021/12/15 11:56:59;;;;;;;9.75;2.53;;;10.20;99.90;;;;;;5018087;28;20045;-71
2021/12/15 11:59:32;;;;;;;9.13;2.35;;;10.20;99.90;;;;;;5019249;28;20033;-73
2021/12/15 12:02:25;;;;;;;10.63;2.58;;;10.30;99.90;;;;;;5029854;28;20045;-74
2021/12/15 12:04:56;;;;;;;6.13;1.90;;;10.30;99.90;;;;;;5016469;28;20079;-73
2021/12/15 12:07:24;;;;;;;9.88;2.50;;;10.30;99.90;;;;;;5028278;28;20053;-73
2021/12/15 12:10:09;;;;;;;7.15;2.28;;;10.20;99.90;;;;;;5027992;28;20046;-74
2021/12/15 12:12:41;;;;;;;8.00;2.30;;;10.20;99.90;;;;;;5029949;28;20045;-73
2021/12/15 12:15:13;;;;;;;4.47;1.73;;;10.20;99.90;;;;;;5019986;28;20132;-73
2021/12/15 12:17:42;;;;;;;13.27;2.35;;;10.20;99.90;;;;;;5025210;28;20117;-73
2021/12/15 12:20:14;;;;;;;6.15;1.88;;;10.20;99.90;;;;;;5029680;28;20404;-73
2021/12/15 12:22:43;;;;;;;5.70;1.92;;;10.20;99.90;;;;;;5028369;28;20500;-73
2021/12/15 12:25:19;;;;;;;6.43;2.03;;;10.10;99.90;;;;;;5020784;28;20128;-73
2021/12/15 12:27:47;;;;;;;4.97;2.40;;;10.10;99.90;;;;;;5020066;28;20503;-73
2021/12/15 12:30:21;;;;;;;4.65;2.17;;;10.10;99.90;;;;;;5030736;28;20052;-74
2021/12/15 12:32:47;;;;;;;7.55;2.30;;;10.10;99.90;;;;;;5027322;28;20068;-73
2021/12/15 12:35:18;;;;;;;6.57;2.30;;;10.10;99.90;;;;;;5024679;28;20042;-75
2021/12/15 12:37:52;;;;;;;9.63;3.33;;;10.10;99.90;;;;;;5028589;28;20103;-74
2021/12/15 12:40:33;;;;;;;7.20;2.10;;;10.10;99.90;;;;;;5030189;28;20510;-73
2021/12/15 12:42:59;;;;;;;5.00;2.10;;;10.10;99.90;;;;;;5028000;28;20041;-74
2021/12/15 12:45:38;;;;;;;7.25;1.83;;;10.10;99.90;;;;;;5028005;28;20081;-73
2021/12/15 12:48:36;;;;;;;8.48;1.63;;;10.10;99.90;;;;;;5025640;28;20045;-73
2021/12/15 12:57:56;;;;;;;10.25;2.50;;;10.10;99.90;;;;;;5027070;28;20045;-72
2021/12/15 12:59:41;;;;;;;10.50;1.90;;;10.10;99.90;;;;;;5026829;28;20045;-73
2021/12/15 13:02:32;;;;;;;5.93;1.65;;;10.10;99.90;;;;;;5028369;28;20307;-72
2021/12/15 13:04:58;;;;;;;9.75;2.13;;;10.10;99.90;;;;;;5026072;28;20503;-73
2021/12/15 13:07:49;;;;;;;7.72;2.05;;;10.10;99.90;;;;;;5022666;28;20038;-72
2021/12/15 13:10:18;;;;;;;6.50;1.80;;;10.00;99.90;;;;;;5031289;28;20102;-72
2021/12/15 13:12:47;;;;;;;5.63;1.60;;;10.10;99.90;;;;;;5029635;28;20041;-73
2021/12/15 13:15:21;;;;;;;7.57;2.53;;;10.00;99.90;;;;;;5032328;28;20291;-73
2021/12/15 13:18:13;;;;;;;5.75;1.73;;;10.00;99.90;;;;;;5032067;28;20041;-73
2021/12/15 13:20:39;;;;;;;8.65;2.35;;;10.00;99.90;;;;;;5022882;28;20128;-73
2021/12/15 13:23:27;;;;;;;8.88;1.85;;;10.10;99.90;;;;;;5026455;28;20136;-73
2021/12/15 13:28:55;;;;;;;5.00;1.88;;;10.10;99.90;;;;;;5029594;28;20128;-73
2021/12/15 13:31:28;;;;;;;4.80;1.95;;;10.10;99.90;;;;;;5027123;28;20052;-73
2021/12/15 13:33:57;;;;;;;5.28;1.85;;;10.00;99.90;;;;;;5024057;28;20107;-72
2021/12/15 13:36:28;;;;;;;4.93;1.88;;;10.00;99.90;;;;;;5028675;28;20038;-72
2021/12/15 13:39:15;;;;;;;4.55;1.58;;;10.00;99.90;;;;;;5029724;28;20050;-72
2021/12/15 13:44:41;;;;;;;8.23;1.70;;;10.00;99.90;;;;;;5025483;28;20131;-72
2021/12/15 13:47:09;;;;;;;5.32;1.63;;;9.90;99.90;;;;;;5025785;28;20052;-72
2021/12/15 13:49:54;;;;;;;9.55;1.77;;;9.90;99.90;;;;;;5024569;28;20179;-71
2021/12/15 13:52:43;;;;;;;5.82;1.95;;;9.90;99.90;;;;;;5025921;28;20064;-72
2021/12/15 13:55:28;;;;;;;5.10;1.70;;;9.90;99.90;;;;;;5026683;28;20049;-72
2021/12/15 13:57:56;;;;;;;3.67;1.23;;;9.90;99.90;;;;;;5026553;28;20709;-74
2021/12/15 14:00:30;;;;;;;5.43;1.30;;;10.00;99.90;;;;;;5024102;28;20049;-73
2021/12/15 14:02:58;;;;;;;4.00;1.58;;;9.90;99.90;;;;;;5027060;28;20073;-73
2021/12/15 14:05:39;;;;;;;5.45;1.33;;;9.90;99.90;;;;;;5026819;28;20046;-73
2021/12/15 14:08:09;;;;;;;4.07;1.60;;;10.00;99.90;;;;;;5034246;28;20512;-72
2021/12/15 14:10:34;;;;;;;6.88;1.70;;;10.00;99.90;;;;;;5025691;28;20042;-73
2021/12/15 14:13:03;;;;;;;5.72;1.50;;;9.90;99.90;;;;;;5017341;28;20471;-73
2021/12/15 14:15:35;;;;;;;8.82;1.80;;;9.90;99.90;;;;;;5018972;28;20064;-74
2021/12/15 14:18:18;;;;;;;5.28;1.30;;;9.90;99.90;;;;;;5017064;28;20488;-73
2021/12/15 14:20:46;;;;;;;3.25;1.30;;;9.90;99.90;;;;;;5022256;28;20443;-74
2021/12/15 14:23:28;;;;;;;4.57;1.30;;;9.90;99.90;;;;;;5015415;28;20135;-73